Time;durP1;ratioP1;P1;durP2;ratioP2;P2;SDS_P1;SDS_P2;PMS_P1;PMS_P2;Temp;Humidity;BMP_temperature;BMP_pressure;BME280_temperature;BME280_humidity;BME280_pressure;Samples;Min_cycle;Max_cycle;Signal;HPM_P1;HPM_P2
2022/08/13 00:00:28;;;;;;;;;;;23.60;63.60;;;;;;5077951;28;19958;-82
2022/08/13 00:02:56;;;;;;;;;;;23.50;63.60;;;;;;5077439;28;19908;-81
2022/08/13 00:05:24;;;;;;;;;;;23.50;63.70;;;;;;5077573;28;19913;-80
2022/08/13 00:07:50;;;;;;;;;;;23.50;64.00;;;;;;5077287;28;19908;-79
2022/08/13 00:10:25;;;;;;;;;;;23.40;64.20;;;;;;5077798;28;19913;-80
2022/08/13 00:12:57;;;;;;;;;;;23.40;64.70;;;;;;5077331;28;19912;-82
2022/08/13 00:15:26;;;;;;;;;;;23.30;64.90;;;;;;5077720;28;19916;-82
2022/08/13 00:17:52;;;;;;;;;;;23.30;65.40;;;;;;5077521;28;19915;-80
2022/08/13 00:20:19;;;;;;;;;;;23.20;66.50;;;;;;5077706;28;19915;-77
2022/08/13 00:22:45;;;;;;;;;;;23.20;66.00;;;;;;5059214;28;19912;-82
2022/08/13 00:25:11;;;;;;;;;;;23.20;66.30;;;;;;5077215;28;19917;-79
2022/08/13 00:27:37;;;;;;;;;;;23.20;66.20;;;;;;5077499;28;19918;-80
2022/08/13 00:30:05;;;;;;;;;;;23.20;66.20;;;;;;5077380;28;19912;-80
2022/08/13 00:32:30;;;;;;;;;;;23.10;66.60;;;;;;5059137;28;20006;-81
2022/08/13 00:34:57;;;;;;;;;;;22.90;67.20;;;;;;5059060;28;19969;-79
2022/08/13 00:37:25;;;;;;;;;;;22.80;68.10;;;;;;5077012;28;19995;-80
2022/08/13 00:39:50;;;;;;;;;;;22.80;68.70;;;;;;5077007;28;19919;-80
2022/08/13 00:42:23;;;;;;;;;;;22.70;68.60;;;;;;5076754;28;20007;-79
2022/08/13 00:44:48;;;;;;;;;;;22.70;68.90;;;;;;5076863;28;20373;-82
2022/08/13 00:50:00;;;;;;;;;;;22.60;69.50;;;;;;5076642;28;19923;-81
2022/08/13 00:52:30;;;;;;;;;;;22.50;69.80;;;;;;5076602;28;19909;-78
2022/08/13 00:55:06;;;;;;;;;;;22.30;70.80;;;;;;5076930;28;19915;-78
2022/08/13 00:57:31;;;;;;;;;;;22.20;72.80;;;;;;5075852;28;19908;-79
2022/08/13 00:59:57;;;;;;;;;;;22.20;72.90;;;;;;5076567;28;20046;-80
2022/08/13 01:02:23;;;;;;;;;;;22.40;72.10;;;;;;5076924;28;19930;-80
2022/08/13 01:04:49;;;;;;;;;;;22.40;71.80;;;;;;5076461;28;20379;-79
2022/08/13 01:07:18;;;;;;;;;;;22.40;72.00;;;;;;5076432;28;19958;-80
2022/08/13 01:09:44;;;;;;;;;;;22.30;72.10;;;;;;5076057;28;19912;-81
2022/08/13 01:12:10;;;;;;;;;;;22.30;72.40;;;;;;5076112;28;19958;-79
2022/08/13 01:14:36;;;;;;;;;;;22.30;73.00;;;;;;5076227;28;19908;-78
2022/08/13 01:17:03;;;;;;;;;;;22.20;73.40;;;;;;5075956;28;19963;-83
2022/08/13 01:19:31;;;;;;;;;;;22.20;72.70;;;;;;5076232;28;19908;-81
2022/08/13 01:21:58;;;;;;;;;;;22.20;72.30;;;;;;5076248;28;19963;-78
2022/08/13 01:24:24;;;;;;;;;;;22.00;72.50;;;;;;5076279;28;20391;-78
2022/08/13 01:26:51;;;;;;;;;;;22.00;72.50;;;;;;5076265;28;20281;-81
2022/08/13 01:29:18;;;;;;;;;;;22.10;72.60;;;;;;5075695;28;19920;-81
2022/08/13 01:31:44;;;;;;;;;;;22.00;72.60;;;;;;5075796;28;20000;-78
2022/08/13 01:34:11;;;;;;;;;;;21.80;73.70;;;;;;5075604;28;19916;-81
2022/08/13 01:36:37;;;;;;;;;;;21.60;74.60;;;;;;5075455;28;19908;-83
2022/08/13 01:39:05;;;;;;;;;;;21.60;75.40;;;;;;5075677;28;20001;-80
2022/08/13 01:41:32;;;;;;;;;;;21.60;75.40;;;;;;5075357;28;20486;-83
2022/08/13 01:44:04;;;;;;;;;;;21.60;75.60;;;;;;5075102;28;20273;-81
2022/08/13 01:50:28;;;;;;;;;;;21.60;75.80;;;;;;5075600;28;19908;-79
2022/08/13 01:52:02;;;;;;;;;;;21.40;75.60;;;;;;5075246;28;19920;-80
2022/08/13 01:54:28;;;;;;;;;;;21.30;77.30;;;;;;5075544;28;19912;-81
2022/08/13 01:56:59;;;;;;;;;;;21.30;78.50;;;;;;5075176;28;19962;-78
2022/08/13 01:59:25;;;;;;;;;;;21.30;78.70;;;;;;5075664;28;19966;-79
2022/08/13 02:01:51;;;;;;;;;;;21.30;78.90;;;;;;5074918;28;20331;-80
2022/08/13 02:04:17;;;;;;;;;;;21.30;78.90;;;;;;5075246;28;20378;-82
2022/08/13 02:06:42;;;;;;;;;;;21.30;78.80;;;;;;5075025;28;19915;-79
2022/08/13 02:09:08;;;;;;;;;;;21.30;79.20;;;;;;5074913;28;19913;-79
2022/08/13 02:11:35;;;;;;;;;;;21.20;80.00;;;;;;5075044;28;19999;-79
2022/08/13 02:14:03;;;;;;;;;;;21.20;80.20;;;;;;5074886;28;20077;-79
2022/08/13 02:16:31;;;;;;;;;;;21.00;81.10;;;;;;5074614;28;19991;-80
2022/08/13 02:18:57;;;;;;;;;;;21.00;81.60;;;;;;5074659;28;20007;-79
2022/08/13 02:21:25;;;;;;;;;;;20.90;82.90;;;;;;5074759;28;19958;-79
2022/08/13 02:23:56;;;;;;;;;;;21.00;83.40;;;;;;5074684;28;19928;-83
2022/08/13 02:26:27;;;;;;;;;;;21.00;83.40;;;;;;5075487;28;19919;-80
2022/08/13 02:28:54;;;;;;;;;;;21.00;84.00;;;;;;5074605;28;19912;-80
2022/08/13 02:31:21;;;;;;;;;;;20.90;84.20;;;;;;5074515;28;19909;-83
2022/08/13 02:33:47;;;;;;;;;;;20.80;85.20;;;;;;5074421;28;19909;-80
2022/08/13 02:36:13;;;;;;;;;;;20.80;85.90;;;;;;5074804;28;19932;-80
2022/08/13 02:38:38;;;;;;;;;;;20.70;86.80;;;;;;5074177;28;19916;-79
2022/08/13 02:43:50;;;;;;;;;;;20.80;86.60;;;;;;5074106;28;19943;-80
2022/08/13 02:46:16;;;;;;;;;;;20.80;86.50;;;;;;5074327;28;19909;-78
2022/08/13 02:48:42;;;;;;;;;;;20.70;87.40;;;;;;5074229;28;19912;-80
2022/08/13 02:51:11;;;;;;;;;;;20.70;87.00;;;;;;5074051;28;20323;-79
2022/08/13 02:53:37;;;;;;;;;;;20.80;87.00;;;;;;5074057;28;20442;-80
2022/08/13 02:56:06;;;;;;;;;;;20.70;87.80;;;;;;5073980;28;19960;-78
2022/08/13 02:58:31;;;;;;;;;;;20.60;87.90;;;;;;5074325;28;19951;-80
2022/08/13 03:00:58;;;;;;;;;;;20.60;88.50;;;;;;5056012;28;19909;-82
2022/08/13 03:03:26;;;;;;;;;;;20.50;88.80;;;;;;5073987;28;20415;-79
2022/08/13 03:05:52;;;;;;;;;;;20.50;88.60;;;;;;5073824;28;20392;-79
2022/08/13 03:08:18;;;;;;;;;;;20.40;89.00;;;;;;5073963;28;19909;-79
2022/08/13 03:10:44;;;;;;;;;;;20.50;88.70;;;;;;5055806;28;19919;-78
2022/08/13 03:13:15;;;;;;;;;;;20.40;88.20;;;;;;5074223;28;19962;-80
2022/08/13 03:15:41;;;;;;;;;;;20.40;87.00;;;;;;5073965;28;19919;-81
2022/08/13 03:18:09;;;;;;;;;;;20.30;86.80;;;;;;5073919;28;20353;-82
2022/08/13 03:20:34;;;;;;;;;;;20.20;87.40;;;;;;5059154;28;19957;-80
2022/08/13 03:23:01;;;;;;;;;;;20.10;87.80;;;;;;5078113;28;20007;-81
2022/08/13 03:25:28;;;;;;;;;;;20.00;88.50;;;;;;5078311;28;19908;-81
2022/08/13 03:27:54;;;;;;;;;;;20.00;88.60;;;;;;5078636;28;19916;-79
2022/08/13 03:30:23;;;;;;;;;;;20.00;88.20;;;;;;5077596;28;20277;-79
2022/08/13 03:32:49;;;;;;;;;;;20.20;87.70;;;;;;5077726;28;19908;-80
2022/08/13 03:35:16;;;;;;;;;;;20.10;88.40;;;;;;5077725;28;19962;-80
2022/08/13 03:37:43;;;;;;;;;;;20.00;89.20;;;;;;5077568;28;19971;-80
2022/08/13 03:40:10;;;;;;;;;;;20.00;90.00;;;;;;5078034;28;19909;-81
2022/08/13 03:42:35;;;;;;;;;;;20.00;90.00;;;;;;5077566;28;20015;-80
2022/08/13 03:45:02;;;;;;;;;;;20.00;89.70;;;;;;5077598;28;19952;-78
2022/08/13 03:47:28;;;;;;;;;;;20.00;89.40;;;;;;5077356;28;20280;-80
2022/08/13 03:49:53;;;;;;;;;;;19.90;89.70;;;;;;5077408;28;20003;-79
2022/08/13 03:52:19;;;;;;;;;;;19.90;89.10;;;;;;5077357;28;19908;-82
2022/08/13 03:54:45;;;;;;;;;;;19.80;89.30;;;;;;5077244;28;19915;-81
2022/08/13 03:57:11;;;;;;;;;;;19.60;90.40;;;;;;5077252;28;20403;-80
2022/08/13 03:59:40;;;;;;;;;;;19.70;90.90;;;;;;5077124;28;19996;-80
2022/08/13 04:02:06;;;;;;;;;;;19.70;90.90;;;;;;5077113;28;20344;-80
2022/08/13 04:04:32;;;;;;;;;;;19.70;90.70;;;;;;5058988;28;20384;-79
2022/08/13 04:06:59;;;;;;;;;;;19.60;91.30;;;;;;5077218;28;19915;-80
2022/08/13 04:09:24;;;;;;;;;;;19.50;92.00;;;;;;5076966;28;20435;-81
2022/08/13 04:11:50;;;;;;;;;;;19.40;93.00;;;;;;5076718;28;19989;-81
2022/08/13 04:14:16;;;;;;;;;;;19.40;93.50;;;;;;5076859;28;19908;-80
2022/08/13 04:16:41;;;;;;;;;;;19.40;94.20;;;;;;5076770;28;19974;-81
2022/08/13 04:19:07;;;;;;;;;;;19.20;95.80;;;;;;5076918;28;20342;-82
2022/08/13 04:21:33;;;;;;;;;;;19.10;98.00;;;;;;5076660;28;19915;-80
2022/08/13 04:24:02;;;;;;;;;;;19.00;98.50;;;;;;5076571;28;19908;-82
2022/08/13 04:26:30;;;;;;;;;;;19.20;97.80;;;;;;5076581;28;19942;-79
2022/08/13 04:28:57;;;;;;;;;;;19.30;96.80;;;;;;5077090;28;19912;-79
2022/08/13 04:31:23;;;;;;;;;;;19.50;96.00;;;;;;5075589;28;20339;-83
2022/08/13 04:33:49;;;;;;;;;;;19.50;94.60;;;;;;5076382;28;19909;-83
2022/08/13 04:36:16;;;;;;;;;;;19.50;94.40;;;;;;5076353;28;19948;-80
2022/08/13 04:38:42;;;;;;;;;;;19.40;94.10;;;;;;5076261;28;19999;-80
2022/08/13 04:41:07;;;;;;;;;;;19.40;94.40;;;;;;5076301;28;19916;-80
2022/08/13 04:43:33;;;;;;;;;;;19.30;94.70;;;;;;5076161;28;19921;-79
2022/08/13 04:45:59;;;;;;;;;;;19.20;94.60;;;;;;5076398;28;20384;-81
2022/08/13 04:48:26;;;;;;;;;;;19.10;95.00;;;;;;5076229;28;19908;-82
2022/08/13 04:50:52;;;;;;;;;;;19.10;95.30;;;;;;5076084;28;19913;-81
2022/08/13 04:53:22;;;;;;;;;;;19.00;95.50;;;;;;5076030;28;20285;-80
2022/08/13 04:55:48;;;;;;;;;;;19.00;96.10;;;;;;5075962;28;19908;-81
2022/08/13 04:58:14;;;;;;;;;;;19.00;96.10;;;;;;5076185;28;19991;-79
2022/08/13 05:00:39;;;;;;;;;;;19.10;96.20;;;;;;5075908;28;19909;-80
2022/08/13 05:03:08;;;;;;;;;;;19.20;96.20;;;;;;5076112;28;19908;-79
2022/08/13 05:05:35;;;;;;;;;;;19.30;96.40;;;;;;5075745;28;20043;-80
2022/08/13 05:08:01;;;;;;;;;;;19.10;97.30;;;;;;5076106;28;20296;-78
2022/08/13 05:10:27;;;;;;;;;;;19.10;97.10;;;;;;5076169;28;19955;-78
2022/08/13 05:12:53;;;;;;;;;;;19.20;96.70;;;;;;5075694;28;20401;-78
2022/08/13 05:15:18;;;;;;;;;;;19.30;96.60;;;;;;5075556;28;19915;-83
2022/08/13 05:17:44;;;;;;;;;;;19.20;96.30;;;;;;5057576;28;19908;-81
2022/08/13 05:20:15;;;;;;;;;;;19.20;96.00;;;;;;5057619;28;20284;-81
2022/08/13 05:22:40;;;;;;;;;;;19.20;95.70;;;;;;5075624;28;19909;-81
2022/08/13 05:25:06;;;;;;;;;;;19.30;95.40;;;;;;5075524;28;19941;-82
2022/08/13 05:27:32;;;;;;;;;;;19.30;95.40;;;;;;5075908;28;19908;-79
2022/08/13 05:29:58;;;;;;;;;;;19.30;95.70;;;;;;5075492;28;19912;-78
2022/08/13 05:32:25;;;;;;;;;;;19.40;95.40;;;;;;5075267;28;19909;-80
2022/08/13 05:34:51;;;;;;;;;;;19.40;95.30;;;;;;5075392;28;19909;-78
2022/08/13 05:37:17;;;;;;;;;;;19.40;95.40;;;;;;5075188;28;19991;-81
2022/08/13 05:39:43;;;;;;;;;;;19.40;95.50;;;;;;5075075;28;19954;-79
2022/08/13 05:42:09;;;;;;;;;;;19.50;95.10;;;;;;5074499;28;19944;-77
2022/08/13 05:44:35;;;;;;;;;;;19.50;94.80;;;;;;5075339;28;19924;-81
2022/08/13 05:47:00;;;;;;;;;;;19.60;94.20;;;;;;5075000;28;19927;-79
2022/08/13 05:49:26;;;;;;;;;;;19.70;93.90;;;;;;5056789;28;20269;-78
2022/08/13 05:51:52;;;;;;;;;;;19.60;93.80;;;;;;5075097;28;19916;-77
2022/08/13 05:54:19;;;;;;;;;;;19.60;94.00;;;;;;5056750;28;19936;-77
2022/08/13 05:56:45;;;;;;;;;;;19.60;93.70;;;;;;5074716;28;20369;-78
2022/08/13 06:03:22;;;;;;;;;;;19.70;93.50;;;;;;5074644;28;19994;-80
2022/08/13 06:04:40;;;;;;;;;;;19.80;94.20;;;;;;5074395;28;20407;-78
2022/08/13 06:07:09;;;;;;;;;;;19.90;94.30;;;;;;5074588;28;19912;-83
2022/08/13 06:09:36;;;;;;;;;;;20.00;94.30;;;;;;5056349;28;19916;-79
2022/08/13 06:12:02;;;;;;;;;;;20.20;94.10;;;;;;5074630;28;19912;-79
2022/08/13 06:14:30;;;;;;;;;;;20.40;93.90;;;;;;5074417;28;19908;-79
2022/08/13 06:16:56;;;;;;;;;;;20.60;93.90;;;;;;5074244;28;19909;-79
2022/08/13 06:19:22;;;;;;;;;;;20.70;94.00;;;;;;5074255;28;19916;-77
2022/08/13 06:21:49;;;;;;;;;;;20.80;93.80;;;;;;5074166;28;19916;-82
2022/08/13 06:24:14;;;;;;;;;;;21.00;93.70;;;;;;5074370;28;19962;-81
2022/08/13 06:26:40;;;;;;;;;;;21.10;93.60;;;;;;5074108;28;19913;-79
2022/08/13 06:29:06;;;;;;;;;;;21.20;94.10;;;;;;5074998;28;19918;-84
2022/08/13 06:31:35;;;;;;;;;;;21.20;94.50;;;;;;5074443;28;19943;-79
2022/08/13 06:34:01;;;;;;;;;;;21.40;94.10;;;;;;5074031;28;19912;-79
2022/08/13 06:36:29;;;;;;;;;;;21.40;94.00;;;;;;5074065;28;19915;-79
2022/08/13 06:38:57;;;;;;;;;;;21.30;94.60;;;;;;5073917;28;19909;-79
2022/08/13 06:41:23;;;;;;;;;;;21.60;94.20;;;;;;5073886;28;20368;-81
2022/08/13 06:43:51;;;;;;;;;;;21.70;93.70;;;;;;5073513;28;19956;-78
2022/08/13 06:46:20;;;;;;;;;;;21.80;93.60;;;;;;5073832;28;19915;-80
2022/08/13 06:48:46;;;;;;;;;;;22.10;92.90;;;;;;5073625;28;19954;-79
2022/08/13 06:51:12;;;;;;;;;;;22.10;92.80;;;;;;5074154;28;20280;-80
2022/08/13 06:53:38;;;;;;;;;;;22.30;92.60;;;;;;5073085;28;19908;-81
2022/08/13 06:56:05;;;;;;;;;;;22.50;92.00;;;;;;5073931;28;19915;-78
2022/08/13 06:58:31;;;;;;;;;;;22.70;91.70;;;;;;5055757;28;19913;-81
2022/08/13 07:00:58;;;;;;;;;;;23.90;89.80;;;;;;5073702;28;19932;-82
2022/08/13 07:03:25;;;;;;;;;;;25.20;83.30;;;;;;5073670;28;19909;-79
2022/08/13 07:05:51;;;;;;;;;;;26.30;77.90;;;;;;5073613;28;20007;-79
2022/08/13 07:08:17;;;;;;;;;;;26.70;75.00;;;;;;5073591;28;19995;-80
2022/08/13 07:10:51;;;;;;;;;;;27.20;73.70;;;;;;5073463;28;19913;-81
2022/08/13 07:13:20;;;;;;;;;;;27.40;72.70;;;;;;5055341;28;20277;-81
2022/08/13 07:15:51;;;;;;;;;;;27.40;72.00;;;;;;5073536;28;19916;-79
2022/08/13 07:18:17;;;;;;;;;;;27.50;73.20;;;;;;5055250;28;19909;-81
2022/08/13 07:20:43;;;;;;;;;;;27.50;73.30;;;;;;5073556;28;19909;-82
2022/08/13 07:23:11;;;;;;;;;;;27.30;73.20;;;;;;5073506;28;19959;-80
2022/08/13 07:25:37;;;;;;;;;;;27.50;73.20;;;;;;5073576;28;19908;-80
2022/08/13 07:28:05;;;;;;;;;;;27.60;72.20;;;;;;5074119;28;19908;-81
2022/08/13 07:30:31;;;;;;;;;;;27.80;71.20;;;;;;5073308;28;19912;-80
2022/08/13 07:32:57;;;;;;;;;;;27.70;71.20;;;;;;5073319;28;19967;-79
2022/08/13 07:35:23;;;;;;;;;;;27.80;70.80;;;;;;5073444;28;20008;-78
2022/08/13 07:37:52;;;;;;;;;;;28.10;70.70;;;;;;5073331;28;19909;-83
2022/08/13 07:40:19;;;;;;;;;;;28.30;70.10;;;;;;5073306;28;19908;-81
2022/08/13 07:42:46;;;;;;;;;;;28.50;69.80;;;;;;5073142;28;19920;-79
2022/08/13 07:45:20;;;;;;;;;;;28.60;67.80;;;;;;5073544;28;19995;-78
2022/08/13 07:47:50;;;;;;;;;;;28.60;68.70;;;;;;5073263;28;19915;-79
2022/08/13 07:50:16;;;;;;;;;;;28.70;67.70;;;;;;5073381;28;19963;-83
2022/08/13 07:52:41;;;;;;;;;;;29.40;66.30;;;;;;5073147;28;20022;-80
2022/08/13 07:55:07;;;;;;;;;;;29.80;64.40;;;;;;5073300;28;19912;-84
2022/08/13 07:57:33;;;;;;;;;;;30.30;62.20;;;;;;5055511;28;20293;-81
2022/08/13 07:59:59;;;;;;;;;;;30.70;60.80;;;;;;5073099;28;19916;-79
2022/08/13 08:02:25;;;;;;;;;;;30.70;54.60;;;;;;5073120;28;20369;-85
2022/08/13 08:04:52;;;;;;;;;;;30.60;54.30;;;;;;5073453;28;19912;-80
2022/08/13 08:07:18;;;;;;;;;;;30.80;53.20;;;;;;5076570;28;19961;-80
2022/08/13 08:09:44;;;;;;;;;;;30.90;50.10;;;;;;5076644;28;20398;-83
2022/08/13 08:14:53;;;;;;;;;;;31.40;48.90;;;;;;5086050;28;20384;-81
2022/08/13 08:17:20;;;;;;;;;;;31.70;48.30;;;;;;5096483;28;19908;-81
2022/08/13 08:19:50;;;;;;;;;;;32.20;47.80;;;;;;5078489;28;19908;-79
2022/08/13 08:22:17;;;;;;;;;;;32.10;46.30;;;;;;5097344;28;19908;-84
2022/08/13 08:24:47;;;;;;;;;;;32.10;45.30;;;;;;5096749;28;20406;-81
2022/08/13 08:27:16;;;;;;;;;;;32.00;45.10;;;;;;5097337;28;19908;-81
2022/08/13 08:29:44;;;;;;;;;;;32.40;45.20;;;;;;5096802;28;20415;-83
2022/08/13 08:32:11;;;;;;;;;;;33.00;45.00;;;;;;5097182;28;19908;-81
2022/08/13 08:34:40;;;;;;;;;;;33.80;45.00;;;;;;5096535;28;20325;-79
2022/08/13 08:37:07;;;;;;;;;;;34.70;43.80;;;;;;5096636;28;19962;-80
2022/08/13 08:42:38;;;;;;;;;;;35.50;42.40;;;;;;5098503;28;19927;-80
2022/08/13 08:45:09;;;;;;;;;;;36.30;41.20;;;;;;5116958;28;19912;-81
2022/08/13 08:47:35;;;;;;;;;;;36.70;40.80;;;;;;5098332;28;19908;-82
2022/08/13 08:50:01;;;;;;;;;;;37.20;40.40;;;;;;5116506;28;19934;-78
2022/08/13 08:53:19;;;;;;;;;;;37.50;40.20;;;;;;5116641;28;19907;-77
2022/08/13 08:55:13;;;;;;;;;;;38.20;40.10;;;;;;5116380;28;19947;-79
2022/08/13 08:57:39;;;;;;;;;;;38.80;39.10;;;;;;5116762;28;19915;-80
2022/08/13 09:00:05;;;;;;;;;;;39.10;38.70;;;;;;5116411;28;19907;-77
2022/08/13 09:02:33;;;;;;;;;;;39.40;38.20;;;;;;5116378;28;20024;-80
2022/08/13 09:05:02;;;;;;;;;;;39.70;38.30;;;;;;5116480;28;19954;-80
2022/08/13 09:07:29;;;;;;;;;;;40.80;38.20;;;;;;5116271;28;19943;-83
2022/08/13 09:09:57;;;;;;;;;;;41.40;37.00;;;;;;5116255;28;20003;-79
2022/08/13 09:12:26;;;;;;;;;;;41.90;36.70;;;;;;5116226;28;20260;-79
2022/08/13 09:14:52;;;;;;;;;;;41.90;36.10;;;;;;5116087;28;19908;-78
2022/08/13 09:17:19;;;;;;;;;;;41.90;36.50;;;;;;5115225;28;19908;-79
2022/08/13 09:19:44;;;;;;;;;;;42.30;35.90;;;;;;5116330;28;19908;-80
2022/08/13 09:22:14;;;;;;;;;;;42.60;36.20;;;;;;5115994;28;20283;-83
2022/08/13 09:24:45;;;;;;;;;;;43.10;35.50;;;;;;5097629;28;19908;-77
2022/08/13 09:27:15;;;;;;;;;;;42.80;35.40;;;;;;5116306;28;19915;-81
2022/08/13 09:29:42;;;;;;;;;;;43.50;34.80;;;;;;5116710;28;19934;-80
2022/08/13 09:32:09;;;;;;;;;;;43.60;34.30;;;;;;5115817;28;19908;-81
2022/08/13 09:34:36;;;;;;;;;;;43.80;34.30;;;;;;5116220;28;19908;-79
2022/08/13 09:37:01;;;;;;;;;;;44.50;34.20;;;;;;5115803;28;19912;-78
2022/08/13 09:39:42;;;;;;;;;;;44.20;33.90;;;;;;5115736;28;19908;-82
2022/08/13 09:42:14;;;;;;;;;;;44.70;34.10;;;;;;5115652;28;19961;-82
2022/08/13 09:44:41;;;;;;;;;;;45.10;32.50;;;;;;5115787;28;19912;-81
2022/08/13 09:47:09;;;;;;;;;;;44.80;32.70;;;;;;5116146;28;19907;-81
2022/08/13 09:49:34;;;;;;;;;;;45.20;32.70;;;;;;5096987;28;20309;-81
2022/08/13 09:52:00;;;;;;;;;;;46.40;32.90;;;;;;5115508;28;19914;-83
2022/08/13 09:54:26;;;;;;;;;;;47.00;32.10;;;;;;5115684;28;19908;-78
2022/08/13 09:56:52;;;;;;;;;;;47.50;31.30;;;;;;5097061;28;19943;-82
2022/08/13 09:59:22;;;;;;;;;;;48.10;31.30;;;;;;5115339;28;19908;-81
2022/08/13 10:01:49;;;;;;;;;;;49.70;31.00;;;;;;5115394;28;19912;-85
2022/08/13 10:04:19;;;;;;;;;;;49.80;29.90;;;;;;5115222;28;20292;-81
2022/08/13 10:06:45;;;;;;;;;;;50.30;30.00;;;;;;5096809;28;20291;-83
2022/08/13 10:09:11;;;;;;;;;;;50.90;29.80;;;;;;5115219;28;19998;-79
2022/08/13 10:11:37;;;;;;;;;;;51.10;29.80;;;;;;5114979;28;19908;-80
2022/08/13 10:14:03;;;;;;;;;;;50.50;29.80;;;;;;5115167;28;19907;-83
2022/08/13 10:16:28;;;;;;;;;;;51.20;30.00;;;;;;5115136;28;19908;-84
2022/08/13 10:18:55;;;;;;;;;;;49.70;29.30;;;;;;5115259;28;19908;-79
2022/08/13 10:21:21;;;;;;;;;;;50.10;29.60;;;;;;5114876;28;19908;-80
2022/08/13 10:23:47;;;;;;;;;;;51.20;29.20;;;;;;5114818;28;20256;-81
2022/08/13 10:26:16;;;;;;;;;;;51.40;28.80;;;;;;5114871;28;20383;-80
2022/08/13 10:28:42;;;;;;;;;;;51.60;29.10;;;;;;5115270;28;19960;-79
2022/08/13 10:31:08;;;;;;;;;;;51.20;28.80;;;;;;5114624;28;19995;-82
2022/08/13 10:33:37;;;;;;;;;;;52.70;28.90;;;;;;5114939;28;20004;-84
2022/08/13 10:36:06;;;;;;;;;;;53.10;28.60;;;;;;5114739;28;19938;-80
2022/08/13 10:38:32;;;;;;;;;;;54.00;28.60;;;;;;5115113;28;19912;-81
2022/08/13 10:41:03;;;;;;;;;;;51.90;28.00;;;;;;5114430;28;19919;-82
2022/08/13 10:43:31;;;;;;;;;;;50.80;28.60;;;;;;5114436;28;19970;-83
2022/08/13 10:45:57;;;;;;;;;;;48.10;28.70;;;;;;5114436;28;19930;-82
2022/08/13 10:48:25;;;;;;;;;;;48.90;29.10;;;;;;5114340;28;19992;-80
2022/08/13 10:50:52;;;;;;;;;;;50.20;28.70;;;;;;5114369;28;19940;-81
2022/08/13 10:56:03;;;;;;;;;;;48.00;28.20;;;;;;5114096;28;19980;-83
2022/08/13 10:58:29;;;;;;;;;;;47.70;29.00;;;;;;5114296;28;20007;-81
2022/08/13 11:00:55;;;;;;;;;;;50.00;29.10;;;;;;5114341;28;20443;-84
2022/08/13 11:03:21;;;;;;;;;;;52.00;28.90;;;;;;5112328;28;20018;-85
2022/08/13 11:05:47;;;;;;;;;;;54.70;28.60;;;;;;5093931;28;20028;-83
2022/08/13 11:08:14;;;;;;;;;;;53.90;27.70;;;;;;5112243;28;19915;-87
2022/08/13 11:10:40;;;;;;;;;;;52.60;28.10;;;;;;5112300;28;19908;-80
2022/08/13 11:13:05;;;;;;;;;;;50.70;28.20;;;;;;5112288;28;19908;-84
2022/08/13 11:15:31;;;;;;;;;;;51.80;28.40;;;;;;5112343;28;19951;-83
2022/08/13 11:17:59;;;;;;;;;;;50.80;28.20;;;;;;5113345;28;19915;-84
2022/08/13 11:20:27;;;;;;;;;;;51.00;28.60;;;;;;5113931;28;19966;-86
2022/08/13 11:22:53;;;;;;;;;;;51.10;28.40;;;;;;5113970;28;19931;-87
2022/08/13 11:25:19;;;;;;;;;;;51.40;28.30;;;;;;5114313;28;19908;-83
2022/08/13 11:27:48;;;;;;;;;;;52.40;28.10;;;;;;5113995;28;19915;-83
2022/08/13 11:30:15;;;;;;;;;;;51.20;27.70;;;;;;5114011;28;19908;-82
2022/08/13 11:32:41;;;;;;;;;;;50.70;28.10;;;;;;5113885;28;19908;-81
2022/08/13 11:35:07;;;;;;;;;;;49.90;28.20;;;;;;5113935;28;19915;-84
2022/08/13 11:37:33;;;;;;;;;;;50.80;28.10;;;;;;5114213;28;19907;-86
2022/08/13 11:39:59;;;;;;;;;;;51.70;28.00;;;;;;5114487;28;20006;-81
2022/08/13 11:42:24;;;;;;;;;;;51.40;27.90;;;;;;5117824;28;19962;-81
2022/08/13 11:44:50;;;;;;;;;;;50.60;27.90;;;;;;5117908;28;19908;-81
2022/08/13 11:47:15;;;;;;;;;;;49.90;27.90;;;;;;5117810;28;19995;-81
2022/08/13 11:49:41;;;;;;;;;;;50.00;28.30;;;;;;5117971;28;19911;-82
2022/08/13 11:52:07;;;;;;;;;;;50.40;28.00;;;;;;5117798;28;20379;-84
2022/08/13 11:54:33;;;;;;;;;;;51.70;28.10;;;;;;5117742;28;19960;-83
2022/08/13 11:57:03;;;;;;;;;;;52.60;28.30;;;;;;5117644;28;19916;-82
2022/08/13 11:59:28;;;;;;;;;;;52.80;28.00;;;;;;5117561;28;19959;-82
2022/08/13 12:01:54;;;;;;;;;;;52.90;27.60;;;;;;5118141;28;19915;-81
2022/08/13 12:04:20;;;;;;;;;;;52.80;27.50;;;;;;5117559;28;19917;-84
2022/08/13 12:06:45;;;;;;;;;;;53.00;27.50;;;;;;5099294;28;19937;-80
2022/08/13 12:09:11;;;;;;;;;;;53.60;27.30;;;;;;5117647;28;20007;-85
2022/08/13 12:11:36;;;;;;;;;;;54.30;27.60;;;;;;5117722;28;19912;-84
2022/08/13 12:14:02;;;;;;;;;;;54.80;27.40;;;;;;5117406;28;19908;-83
2022/08/13 12:16:28;;;;;;;;;;;56.00;27.40;;;;;;5117320;28;19914;-83
2022/08/13 12:18:53;;;;;;;;;;;56.00;27.10;;;;;;5117229;28;19947;-80
2022/08/13 12:21:19;;;;;;;;;;;56.10;27.10;;;;;;5117263;28;19976;-85
2022/08/13 12:23:44;;;;;;;;;;;55.20;26.90;;;;;;5117541;28;19994;-84
2022/08/13 12:26:10;;;;;;;;;;;54.60;27.00;;;;;;5117200;28;19907;-83
2022/08/13 12:28:35;;;;;;;;;;;55.30;27.10;;;;;;5117632;28;19908;-83
2022/08/13 12:31:05;;;;;;;;;;;55.90;27.20;;;;;;5117262;28;20398;-80
2022/08/13 12:33:31;;;;;;;;;;;56.40;27.00;;;;;;5117206;28;20253;-84
2022/08/13 12:35:59;;;;;;;;;;;58.30;27.10;;;;;;5116985;28;20279;-83
2022/08/13 12:38:25;;;;;;;;;;;57.80;26.70;;;;;;5116905;28;19908;-84
2022/08/13 12:40:50;;;;;;;;;;;58.50;26.70;;;;;;5116882;28;20356;-85
2022/08/13 12:43:16;;;;;;;;;;;56.70;26.60;;;;;;5116636;28;19927;-85
2022/08/13 12:45:42;;;;;;;;;;;55.70;26.50;;;;;;5117001;28;19908;-84
2022/08/13 12:48:08;;;;;;;;;;;55.20;26.80;;;;;;5116625;28;20002;-85
2022/08/13 12:50:34;;;;;;;;;;;56.30;27.10;;;;;;5116669;28;19945;-81
2022/08/13 12:53:00;;;;;;;;;;;55.70;26.50;;;;;;5115434;28;19914;-81
2022/08/13 12:55:26;;;;;;;;;;;56.80;26.70;;;;;;5116620;28;19908;-84
2022/08/13 12:57:52;;;;;;;;;;;56.40;26.80;;;;;;5098261;28;19912;-83
2022/08/13 13:00:17;;;;;;;;;;;57.10;26.90;;;;;;5116767;28;19919;-86
2022/08/13 13:02:43;;;;;;;;;;;55.90;26.90;;;;;;5116507;28;19908;-82
2022/08/13 13:05:08;;;;;;;;;;;55.20;26.50;;;;;;5116551;28;19908;-84
2022/08/13 13:07:34;;;;;;;;;;;55.50;26.90;;;;;;5116482;28;19995;-82
2022/08/13 13:10:00;;;;;;;;;;;54.90;26.70;;;;;;5116326;28;19915;-85
2022/08/13 13:12:26;;;;;;;;;;;53.90;26.70;;;;;;5116639;28;19915;-85
2022/08/13 13:14:52;;;;;;;;;;;54.60;26.80;;;;;;5116393;28;19918;-84
2022/08/13 13:17:17;;;;;;;;;;;55.00;26.60;;;;;;5116614;28;19933;-82
2022/08/13 13:19:43;;;;;;;;;;;55.20;26.50;;;;;;5116722;28;20018;-83
2022/08/13 13:22:08;;;;;;;;;;;55.40;26.50;;;;;;5116062;28;19915;-84
2022/08/13 13:24:34;;;;;;;;;;;55.00;26.60;;;;;;5116017;28;20402;-82
2022/08/13 13:27:00;;;;;;;;;;;55.30;26.70;;;;;;5116175;28;19908;-83
2022/08/13 13:29:25;;;;;;;;;;;56.20;26.80;;;;;;5116533;28;19915;-81
2022/08/13 13:31:51;;;;;;;;;;;56.70;26.80;;;;;;5115929;28;19911;-79
2022/08/13 13:34:17;;;;;;;;;;;56.40;26.70;;;;;;5116131;28;20348;-81
2022/08/13 13:36:43;;;;;;;;;;;54.60;26.90;;;;;;5116514;28;19943;-80
2022/08/13 13:39:09;;;;;;;;;;;54.60;26.70;;;;;;5116228;28;19950;-84
2022/08/13 13:41:35;;;;;;;;;;;54.20;26.60;;;;;;5115883;28;20007;-85
2022/08/13 13:44:00;;;;;;;;;;;54.20;26.50;;;;;;5115419;28;19920;-84
2022/08/13 13:46:27;;;;;;;;;;;53.10;26.40;;;;;;5116060;28;19908;-82
2022/08/13 13:48:53;;;;;;;;;;;52.20;26.50;;;;;;5115921;28;19968;-85
2022/08/13 13:51:18;;;;;;;;;;;52.40;26.70;;;;;;5116040;28;19907;-83
2022/08/13 13:53:44;;;;;;;;;;;51.90;26.80;;;;;;5116174;28;19908;-81
2022/08/13 13:56:11;;;;;;;;;;;51.20;26.70;;;;;;5115835;28;19994;-82
2022/08/13 13:58:37;;;;;;;;;;;49.80;26.70;;;;;;5115746;28;20279;-81
2022/08/13 14:01:02;;;;;;;;;;;49.00;26.80;;;;;;5116014;28;19918;-83
2022/08/13 14:03:29;;;;;;;;;;;49.20;26.90;;;;;;5115422;28;19972;-84
2022/08/13 14:05:55;;;;;;;;;;;47.70;26.90;;;;;;5115532;28;19912;-81
2022/08/13 14:08:21;;;;;;;;;;;47.80;27.10;;;;;;5115631;28;19912;-83
2022/08/13 14:10:47;;;;;;;;;;;47.90;26.90;;;;;;5115372;28;19943;-83
2022/08/13 14:13:13;;;;;;;;;;;46.80;26.90;;;;;;5115582;28;19947;-83
2022/08/13 14:15:39;;;;;;;;;;;45.90;27.10;;;;;;5115686;28;19908;-81
2022/08/13 14:18:09;;;;;;;;;;;45.40;27.60;;;;;;5115730;28;20265;-82
2022/08/13 14:20:42;;;;;;;;;;;45.40;27.70;;;;;;5115320;28;19916;-81
2022/08/13 14:23:08;;;;;;;;;;;45.30;27.70;;;;;;5096844;28;19952;-81
2022/08/13 14:25:35;;;;;;;;;;;45.90;27.80;;;;;;5115781;28;19954;-83
2022/08/13 14:28:01;;;;;;;;;;;46.30;27.60;;;;;;5115380;28;20331;-80
2022/08/13 14:30:27;;;;;;;;;;;46.20;27.50;;;;;;5116373;28;19911;-84
2022/08/13 14:32:53;;;;;;;;;;;46.40;27.60;;;;;;5115669;28;19915;-84